sensor_id;sensor_type;location;lat;lon;timestamp;P1;durP1;ratioP1;P2;durP2;ratioP2
9473;SDS011;8865;47.636;7.692;2023-05-19T02:01:57;3.20;;;2.30;;
9473;SDS011;8865;47.636;7.692;2023-05-19T02:05:05;2.77;;;2.30;;
9473;SDS011;8865;47.636;7.692;2023-05-19T02:07:47;4.03;;;2.50;;
9473;SDS011;8865;47.636;7.692;2023-05-19T02:10:52;3.43;;;2.30;;
9473;SDS011;8865;47.636;7.692;2023-05-19T02:14:48;3.20;;;2.40;;
9473;SDS011;8865;47.636;7.692;2023-05-19T02:21:13;4.00;;;2.30;;
9473;SDS011;8865;47.636;7.692;2023-05-19T02:23:58;2.97;;;1.93;;
9473;SDS011;8865;47.636;7.692;2023-05-19T06:55:33;7.93;;;3.97;;
9473;SDS011;8865;47.636;7.692;2023-05-19T06:58:05;5.27;;;3.30;;
9473;SDS011;8865;47.636;7.692;2023-05-19T07:00:34;6.63;;;3.60;;
9473;SDS011;8865;47.636;7.692;2023-05-19T07:03:01;8.60;;;3.77;;
9473;SDS011;8865;47.636;7.692;2023-05-19T07:05:28;8.47;;;3.70;;
9473;SDS011;8865;47.636;7.692;2023-05-19T07:07:54;8.13;;;3.57;;
9473;SDS011;8865;47.636;7.692;2023-05-19T07:10:20;5.53;;;2.97;;
9473;SDS011;8865;47.636;7.692;2023-05-19T07:12:46;4.57;;;3.20;;
9473;SDS011;8865;47.636;7.692;2023-05-19T07:15:12;7.60;;;3.50;;
9473;SDS011;8865;47.636;7.692;2023-05-19T07:17:38;6.07;;;3.33;;
9473;SDS011;8865;47.636;7.692;2023-05-19T07:20:04;4.90;;;3.03;;
9473;SDS011;8865;47.636;7.692;2023-05-19T07:22:31;4.40;;;3.13;;
9473;SDS011;8865;47.636;7.692;2023-05-19T07:24:59;4.87;;;3.27;;
9473;SDS011;8865;47.636;7.692;2023-05-19T07:27:25;5.90;;;3.13;;
9473;SDS011;8865;47.636;7.692;2023-05-19T07:29:52;5.70;;;3.73;;
9473;SDS011;8865;47.636;7.692;2023-05-19T07:32:18;5.57;;;3.57;;
9473;SDS011;8865;47.636;7.692;2023-05-19T07:34:44;8.47;;;3.77;;
9473;SDS011;8865;47.636;7.692;2023-05-19T07:37:10;5.83;;;3.80;;
9473;SDS011;8865;47.636;7.692;2023-05-19T07:39:36;5.17;;;3.37;;
9473;SDS011;8865;47.636;7.692;2023-05-19T07:42:02;5.10;;;3.33;;
9473;SDS011;8865;47.636;7.692;2023-05-19T07:44:29;5.90;;;3.00;;
9473;SDS011;8865;47.636;7.692;2023-05-19T07:46:56;7.07;;;3.03;;
9473;SDS011;8865;47.636;7.692;2023-05-19T07:49:22;5.20;;;3.20;;
9473;SDS011;8865;47.636;7.692;2023-05-19T07:51:48;5.30;;;3.00;;
9473;SDS011;8865;47.636;7.692;2023-05-19T07:54:14;5.33;;;3.37;;
9473;SDS011;8865;47.636;7.692;2023-05-19T07:56:40;6.57;;;3.33;;
9473;SDS011;8865;47.636;7.692;2023-05-19T07:59:06;4.33;;;2.97;;
9473;SDS011;8865;47.636;7.692;2023-05-19T08:01:32;6.57;;;2.97;;
9473;SDS011;8865;47.636;7.692;2023-05-19T08:03:58;5.03;;;3.00;;
9473;SDS011;8865;47.636;7.692;2023-05-19T08:06:24;5.53;;;3.37;;
9473;SDS011;8865;47.636;7.692;2023-05-19T08:08:50;4.27;;;3.30;;
9473;SDS011;8865;47.636;7.692;2023-05-19T08:11:16;5.30;;;3.20;;
9473;SDS011;8865;47.636;7.692;2023-05-19T08:13:43;3.77;;;3.20;;
9473;SDS011;8865;47.636;7.692;2023-05-19T08:16:09;4.70;;;3.30;;
9473;SDS011;8865;47.636;7.692;2023-05-19T08:18:35;4.17;;;2.87;;
9473;SDS011;8865;47.636;7.692;2023-05-19T08:21:01;4.90;;;3.00;;
9473;SDS011;8865;47.636;7.692;2023-05-19T08:23:27;5.67;;;2.80;;
9473;SDS011;8865;47.636;7.692;2023-05-19T08:25:54;3.53;;;2.90;;
9473;SDS011;8865;47.636;7.692;2023-05-19T08:28:20;5.40;;;2.80;;
9473;SDS011;8865;47.636;7.692;2023-05-19T08:30:46;5.17;;;3.33;;
9473;SDS011;8865;47.636;7.692;2023-05-19T08:33:12;4.23;;;2.80;;
9473;SDS011;8865;47.636;7.692;2023-05-19T08:35:38;3.93;;;2.80;;
9473;SDS011;8865;47.636;7.692;2023-05-19T08:38:05;5.87;;;3.27;;
9473;SDS011;8865;47.636;7.692;2023-05-19T08:40:31;5.27;;;2.93;;
9473;SDS011;8865;47.636;7.692;2023-05-19T08:42:59;6.17;;;3.00;;
9473;SDS011;8865;47.636;7.692;2023-05-19T08:45:25;5.07;;;3.03;;
9473;SDS011;8865;47.636;7.692;2023-05-19T08:47:51;4.50;;;2.83;;
9473;SDS011;8865;47.636;7.692;2023-05-19T08:50:22;5.03;;;2.90;;
9473;SDS011;8865;47.636;7.692;2023-05-19T08:53:12;4.03;;;2.50;;
9473;SDS011;8865;47.636;7.692;2023-05-19T08:55:54;4.20;;;2.87;;
9473;SDS011;8865;47.636;7.692;2023-05-19T08:58:26;5.97;;;3.03;;
9473;SDS011;8865;47.636;7.692;2023-05-19T09:00:52;6.13;;;3.10;;
9473;SDS011;8865;47.636;7.692;2023-05-19T09:03:21;3.53;;;2.60;;
9473;SDS011;8865;47.636;7.692;2023-05-19T09:05:48;3.77;;;2.63;;
9473;SDS011;8865;47.636;7.692;2023-05-19T09:08:15;4.07;;;2.70;;
9473;SDS011;8865;47.636;7.692;2023-05-19T09:10:41;5.50;;;2.83;;
9473;SDS011;8865;47.636;7.692;2023-05-19T09:13:07;3.33;;;2.60;;
9473;SDS011;8865;47.636;7.692;2023-05-19T09:15:33;3.67;;;2.20;;
9473;SDS011;8865;47.636;7.692;2023-05-19T09:18:09;6.10;;;2.90;;
9473;SDS011;8865;47.636;7.692;2023-05-19T09:20:41;5.63;;;2.83;;
9473;SDS011;8865;47.636;7.692;2023-05-19T09:23:15;5.03;;;2.60;;
9473;SDS011;8865;47.636;7.692;2023-05-19T09:25:49;4.50;;;2.57;;
9473;SDS011;8865;47.636;7.692;2023-05-19T09:33:34;6.13;;;3.00;;
9473;SDS011;8865;47.636;7.692;2023-05-19T09:36:01;4.20;;;2.60;;
9473;SDS011;8865;47.636;7.692;2023-05-19T09:38:30;5.47;;;3.03;;
9473;SDS011;8865;47.636;7.692;2023-05-19T09:40:57;3.10;;;2.30;;
9473;SDS011;8865;47.636;7.692;2023-05-19T09:43:27;3.33;;;2.20;;
9473;SDS011;8865;47.636;7.692;2023-05-19T09:46:09;5.60;;;2.30;;
9473;SDS011;8865;47.636;7.692;2023-05-19T09:48:38;5.30;;;2.57;;
9473;SDS011;8865;47.636;7.692;2023-05-19T09:51:04;4.50;;;2.60;;
9473;SDS011;8865;47.636;7.692;2023-05-19T09:53:34;3.70;;;2.23;;
9473;SDS011;8865;47.636;7.692;2023-05-19T09:56:01;5.17;;;2.70;;
9473;SDS011;8865;47.636;7.692;2023-05-19T09:58:31;3.63;;;2.47;;
9473;SDS011;8865;47.636;7.692;2023-05-19T10:01:02;6.30;;;2.70;;
9473;SDS011;8865;47.636;7.692;2023-05-19T10:03:28;3.33;;;2.30;;
9473;SDS011;8865;47.636;7.692;2023-05-19T10:05:57;4.70;;;2.50;;
9473;SDS011;8865;47.636;7.692;2023-05-19T10:08:26;5.33;;;2.47;;
9473;SDS011;8865;47.636;7.692;2023-05-19T10:10:54;4.00;;;2.60;;
9473;SDS011;8865;47.636;7.692;2023-05-19T10:13:21;5.00;;;2.70;;
9473;SDS011;8865;47.636;7.692;2023-05-19T10:15:48;3.90;;;2.57;;
9473;SDS011;8865;47.636;7.692;2023-05-19T10:18:14;3.80;;;2.30;;
9473;SDS011;8865;47.636;7.692;2023-05-19T10:20:42;3.63;;;2.50;;
9473;SDS011;8865;47.636;7.692;2023-05-19T10:23:09;3.63;;;2.40;;
9473;SDS011;8865;47.636;7.692;2023-05-19T10:25:35;4.00;;;2.33;;
9473;SDS011;8865;47.636;7.692;2023-05-19T10:28:04;3.40;;;2.30;;
9473;SDS011;8865;47.636;7.692;2023-05-19T10:30:36;4.45;;;1.98;;
9473;SDS011;8865;47.636;7.692;2023-05-19T10:33:06;5.35;;;2.10;;
9473;SDS011;8865;47.636;7.692;2023-05-19T10:46:11;4.60;;;2.17;;
9473;SDS011;8865;47.636;7.692;2023-05-19T10:48:37;4.53;;;2.15;;
9473;SDS011;8865;47.636;7.692;2023-05-19T10:51:10;2.30;;;2.00;;
9473;SDS011;8865;47.636;7.692;2023-05-19T10:53:39;4.07;;;2.13;;
9473;SDS011;8865;47.636;7.692;2023-05-19T10:56:11;4.07;;;2.40;;
9473;SDS011;8865;47.636;7.692;2023-05-19T10:58:53;2.63;;;2.20;;
9473;SDS011;8865;47.636;7.692;2023-05-19T11:01:19;4.33;;;2.30;;
9473;SDS011;8865;47.636;7.692;2023-05-19T11:03:52;2.73;;;2.17;;
9473;SDS011;8865;47.636;7.692;2023-05-19T11:06:28;3.77;;;2.50;;
9473;SDS011;8865;47.636;7.692;2023-05-19T11:09:00;3.70;;;2.10;;
9473;SDS011;8865;47.636;7.692;2023-05-19T11:11:53;6.23;;;2.30;;
9473;SDS011;8865;47.636;7.692;2023-05-19T11:14:20;5.10;;;2.10;;
9473;SDS011;8865;47.636;7.692;2023-05-19T11:16:48;2.70;;;2.03;;
9473;SDS011;8865;47.636;7.692;2023-05-19T11:19:16;4.97;;;2.23;;
9473;SDS011;8865;47.636;7.692;2023-05-19T11:21:50;2.90;;;2.10;;
9473;SDS011;8865;47.636;7.692;2023-05-19T11:24:32;4.53;;;2.20;;
9473;SDS011;8865;47.636;7.692;2023-05-19T11:29:50;4.60;;;2.50;;
9473;SDS011;8865;47.636;7.692;2023-05-19T11:32:17;2.57;;;2.20;;
9473;SDS011;8865;47.636;7.692;2023-05-19T11:34:45;4.47;;;2.27;;
9473;SDS011;8865;47.636;7.692;2023-05-19T11:37:12;5.10;;;2.70;;
9473;SDS011;8865;47.636;7.692;2023-05-19T11:39:39;2.83;;;2.20;;
9473;SDS011;8865;47.636;7.692;2023-05-19T11:42:07;3.37;;;2.20;;
9473;SDS011;8865;47.636;7.692;2023-05-19T11:44:34;4.60;;;2.57;;
9473;SDS011;8865;47.636;7.692;2023-05-19T11:47:01;3.90;;;2.30;;
9473;SDS011;8865;47.636;7.692;2023-05-19T11:49:27;3.40;;;2.47;;
9473;SDS011;8865;47.636;7.692;2023-05-19T11:51:54;4.53;;;2.50;;
9473;SDS011;8865;47.636;7.692;2023-05-19T11:54:20;3.87;;;2.50;;
9473;SDS011;8865;47.636;7.692;2023-05-19T11:56:46;2.67;;;2.27;;
9473;SDS011;8865;47.636;7.692;2023-05-19T11:59:12;3.33;;;2.00;;
9473;SDS011;8865;47.636;7.692;2023-05-19T12:01:38;3.37;;;2.17;;
9473;SDS011;8865;47.636;7.692;2023-05-19T12:04:08;4.70;;;2.73;;
9473;SDS011;8865;47.636;7.692;2023-05-19T12:06:34;4.23;;;2.30;;
9473;SDS011;8865;47.636;7.692;2023-05-19T12:09:03;5.73;;;2.30;;
9473;SDS011;8865;47.636;7.692;2023-05-19T12:11:30;2.93;;;2.10;;
9473;SDS011;8865;47.636;7.692;2023-05-19T12:13:57;3.50;;;2.30;;
9473;SDS011;8865;47.636;7.692;2023-05-19T12:16:31;5.13;;;2.60;;
9473;SDS011;8865;47.636;7.692;2023-05-19T12:19:00;4.77;;;2.30;;
9473;SDS011;8865;47.636;7.692;2023-05-19T12:21:29;3.43;;;2.30;;
9473;SDS011;8865;47.636;7.692;2023-05-19T12:23:56;4.67;;;2.13;;
9473;SDS011;8865;47.636;7.692;2023-05-19T12:26:22;3.23;;;2.60;;
9473;SDS011;8865;47.636;7.692;2023-05-19T12:32:11;2.90;;;2.07;;
9473;SDS011;8865;47.636;7.692;2023-05-19T12:34:37;2.90;;;2.20;;
9473;SDS011;8865;47.636;7.692;2023-05-19T12:37:04;5.17;;;2.17;;
9473;SDS011;8865;47.636;7.692;2023-05-19T12:39:30;3.67;;;2.30;;
9473;SDS011;8865;47.636;7.692;2023-05-19T12:42:02;3.13;;;2.13;;
9473;SDS011;8865;47.636;7.692;2023-05-19T12:44:29;3.07;;;2.20;;
9473;SDS011;8865;47.636;7.692;2023-05-19T12:46:56;3.10;;;2.27;;
9473;SDS011;8865;47.636;7.692;2023-05-19T12:49:24;3.17;;;2.13;;
9473;SDS011;8865;47.636;7.692;2023-05-19T12:51:51;3.97;;;2.30;;
9473;SDS011;8865;47.636;7.692;2023-05-19T12:54:18;3.37;;;2.40;;
9473;SDS011;8865;47.636;7.692;2023-05-19T12:56:49;2.73;;;2.10;;
9473;SDS011;8865;47.636;7.692;2023-05-19T12:59:20;3.87;;;2.43;;
9473;SDS011;8865;47.636;7.692;2023-05-19T13:01:56;3.67;;;2.23;;
9473;SDS011;8865;47.636;7.692;2023-05-19T13:04:27;4.17;;;2.40;;
9473;SDS011;8865;47.636;7.692;2023-05-19T13:06:53;3.57;;;2.30;;
9473;SDS011;8865;47.636;7.692;2023-05-19T13:09:19;3.43;;;2.20;;
9473;SDS011;8865;47.636;7.692;2023-05-19T13:11:46;2.97;;;2.13;;
9473;SDS011;8865;47.636;7.692;2023-05-19T13:14:19;3.30;;;2.17;;
9473;SDS011;8865;47.636;7.692;2023-05-19T13:16:45;3.90;;;2.20;;
9473;SDS011;8865;47.636;7.692;2023-05-19T13:19:16;4.13;;;2.47;;
9473;SDS011;8865;47.636;7.692;2023-05-19T13:21:43;3.33;;;2.17;;
9473;SDS011;8865;47.636;7.692;2023-05-19T13:24:12;3.70;;;2.30;;
9473;SDS011;8865;47.636;7.692;2023-05-19T13:26:39;2.73;;;2.00;;
9473;SDS011;8865;47.636;7.692;2023-05-19T13:29:06;3.47;;;2.13;;
9473;SDS011;8865;47.636;7.692;2023-05-19T13:31:32;3.03;;;1.97;;
9473;SDS011;8865;47.636;7.692;2023-05-19T13:33:58;4.87;;;2.10;;
9473;SDS011;8865;47.636;7.692;2023-05-19T13:36:24;2.17;;;1.93;;
9473;SDS011;8865;47.636;7.692;2023-05-19T13:38:52;5.07;;;2.23;;
9473;SDS011;8865;47.636;7.692;2023-05-19T13:41:22;3.70;;;2.57;;
9473;SDS011;8865;47.636;7.692;2023-05-19T13:43:51;4.23;;;2.63;;
9473;SDS011;8865;47.636;7.692;2023-05-19T13:46:18;3.37;;;2.33;;
9473;SDS011;8865;47.636;7.692;2023-05-19T13:48:44;3.40;;;2.63;;
9473;SDS011;8865;47.636;7.692;2023-05-19T13:51:10;5.07;;;3.50;;
9473;SDS011;8865;47.636;7.692;2023-05-19T13:53:36;3.97;;;2.50;;
9473;SDS011;8865;47.636;7.692;2023-05-19T13:56:04;5.27;;;3.10;;
9473;SDS011;8865;47.636;7.692;2023-05-19T13:58:30;4.50;;;2.40;;
9473;SDS011;8865;47.636;7.692;2023-05-19T14:00:56;3.67;;;2.30;;
9473;SDS011;8865;47.636;7.692;2023-05-19T14:03:24;3.43;;;2.60;;
9473;SDS011;8865;47.636;7.692;2023-05-19T14:05:51;2.90;;;2.20;;
9473;SDS011;8865;47.636;7.692;2023-05-19T14:08:17;3.50;;;2.30;;
9473;SDS011;8865;47.636;7.692;2023-05-19T14:10:46;5.33;;;2.47;;
9473;SDS011;8865;47.636;7.692;2023-05-19T14:13:12;3.90;;;2.40;;
9473;SDS011;8865;47.636;7.692;2023-05-19T14:15:38;4.10;;;2.23;;
9473;SDS011;8865;47.636;7.692;2023-05-19T14:18:05;2.97;;;2.13;;
9473;SDS011;8865;47.636;7.692;2023-05-19T14:20:31;3.57;;;2.20;;
9473;SDS011;8865;47.636;7.692;2023-05-19T14:22:57;5.00;;;2.40;;
9473;SDS011;8865;47.636;7.692;2023-05-19T14:25:23;3.50;;;2.40;;
9473;SDS011;8865;47.636;7.692;2023-05-19T14:27:49;2.40;;;2.20;;
9473;SDS011;8865;47.636;7.692;2023-05-19T14:30:15;2.87;;;2.00;;
9473;SDS011;8865;47.636;7.692;2023-05-19T14:32:43;3.20;;;2.03;;
9473;SDS011;8865;47.636;7.692;2023-05-19T14:35:09;3.27;;;2.00;;
9473;SDS011;8865;47.636;7.692;2023-05-19T14:37:35;3.33;;;2.10;;
9473;SDS011;8865;47.636;7.692;2023-05-19T14:40:01;4.57;;;2.23;;
9473;SDS011;8865;47.636;7.692;2023-05-19T14:42:28;3.93;;;2.47;;
9473;SDS011;8865;47.636;7.692;2023-05-19T14:44:55;3.40;;;2.47;;
9473;SDS011;8865;47.636;7.692;2023-05-19T14:47:21;2.03;;;1.87;;
9473;SDS011;8865;47.636;7.692;2023-05-19T14:49:47;3.00;;;2.43;;
9473;SDS011;8865;47.636;7.692;2023-05-19T14:52:13;4.23;;;2.40;;
9473;SDS011;8865;47.636;7.692;2023-05-19T14:54:39;3.63;;;2.20;;
9473;SDS011;8865;47.636;7.692;2023-05-19T14:57:05;3.27;;;2.43;;
9473;SDS011;8865;47.636;7.692;2023-05-19T14:59:35;3.00;;;2.23;;
9473;SDS011;8865;47.636;7.692;2023-05-19T15:02:02;3.97;;;2.10;;
9473;SDS011;8865;47.636;7.692;2023-05-19T15:04:28;3.63;;;2.50;;
9473;SDS011;8865;47.636;7.692;2023-05-19T15:06:54;2.83;;;2.30;;
9473;SDS011;8865;47.636;7.692;2023-05-19T15:09:22;4.03;;;2.40;;
9473;SDS011;8865;47.636;7.692;2023-05-19T15:11:48;4.33;;;2.40;;
9473;SDS011;8865;47.636;7.692;2023-05-19T15:14:14;3.90;;;2.40;;
9473;SDS011;8865;47.636;7.692;2023-05-19T15:16:40;3.13;;;2.37;;
9473;SDS011;8865;47.636;7.692;2023-05-19T15:19:06;3.00;;;2.30;;
9473;SDS011;8865;47.636;7.692;2023-05-19T15:21:32;3.77;;;2.57;;
9473;SDS011;8865;47.636;7.692;2023-05-19T15:23:58;5.50;;;2.20;;
9473;SDS011;8865;47.636;7.692;2023-05-19T15:26:24;2.47;;;2.20;;
9473;SDS011;8865;47.636;7.692;2023-05-19T15:28:51;2.97;;;2.30;;
9473;SDS011;8865;47.636;7.692;2023-05-19T15:31:17;3.17;;;2.20;;
9473;SDS011;8865;47.636;7.692;2023-05-19T15:33:43;3.17;;;2.00;;
9473;SDS011;8865;47.636;7.692;2023-05-19T15:36:09;4.77;;;2.70;;
9473;SDS011;8865;47.636;7.692;2023-05-19T15:38:40;3.83;;;2.70;;
9473;SDS011;8865;47.636;7.692;2023-05-19T15:41:06;3.00;;;2.17;;
9473;SDS011;8865;47.636;7.692;2023-05-19T15:43:33;3.73;;;2.60;;
9473;SDS011;8865;47.636;7.692;2023-05-19T15:45:59;3.57;;;2.37;;
9473;SDS011;8865;47.636;7.692;2023-05-19T15:48:25;3.70;;;3.03;;
9473;SDS011;8865;47.636;7.692;2023-05-19T15:50:53;4.27;;;3.80;;
9473;SDS011;8865;47.636;7.692;2023-05-19T15:53:19;6.17;;;3.73;;
9473;SDS011;8865;47.636;7.692;2023-05-19T15:55:45;5.67;;;3.13;;
9473;SDS011;8865;47.636;7.692;2023-05-19T15:58:11;3.77;;;3.33;;
9473;SDS011;8865;47.636;7.692;2023-05-19T16:00:39;3.67;;;2.40;;
9473;SDS011;8865;47.636;7.692;2023-05-19T16:03:05;3.93;;;2.50;;
9473;SDS011;8865;47.636;7.692;2023-05-19T16:05:31;5.77;;;2.53;;
9473;SDS011;8865;47.636;7.692;2023-05-19T16:07:57;2.73;;;2.10;;
9473;SDS011;8865;47.636;7.692;2023-05-19T16:10:23;3.27;;;2.40;;
9473;SDS011;8865;47.636;7.692;2023-05-19T16:12:49;4.37;;;2.40;;
9473;SDS011;8865;47.636;7.692;2023-05-19T16:15:15;2.73;;;2.40;;
9473;SDS011;8865;47.636;7.692;2023-05-19T16:17:41;3.50;;;2.57;;
9473;SDS011;8865;47.636;7.692;2023-05-19T16:20:08;2.70;;;2.50;;
9473;SDS011;8865;47.636;7.692;2023-05-19T16:22:34;3.03;;;2.40;;
9473;SDS011;8865;47.636;7.692;2023-05-19T16:25:00;3.30;;;2.40;;
9473;SDS011;8865;47.636;7.692;2023-05-19T16:27:26;3.00;;;2.30;;
9473;SDS011;8865;47.636;7.692;2023-05-19T16:29:52;2.87;;;2.30;;
9473;SDS011;8865;47.636;7.692;2023-05-19T16:32:19;3.30;;;2.40;;
9473;SDS011;8865;47.636;7.692;2023-05-19T16:34:45;3.80;;;2.43;;
9473;SDS011;8865;47.636;7.692;2023-05-19T16:37:11;3.43;;;2.20;;
9473;SDS011;8865;47.636;7.692;2023-05-19T16:39:37;3.13;;;2.80;;
9473;SDS011;8865;47.636;7.692;2023-05-19T16:42:04;4.47;;;3.17;;
9473;SDS011;8865;47.636;7.692;2023-05-19T16:44:30;4.17;;;2.73;;
9473;SDS011;8865;47.636;7.692;2023-05-19T16:46:56;4.53;;;3.90;;
9473;SDS011;8865;47.636;7.692;2023-05-19T16:49:22;3.50;;;2.80;;
9473;SDS011;8865;47.636;7.692;2023-05-19T16:51:48;3.70;;;2.93;;
9473;SDS011;8865;47.636;7.692;2023-05-19T16:54:14;4.63;;;3.00;;
9473;SDS011;8865;47.636;7.692;2023-05-19T16:56:40;5.70;;;2.77;;
9473;SDS011;8865;47.636;7.692;2023-05-19T16:59:07;3.30;;;2.50;;
9473;SDS011;8865;47.636;7.692;2023-05-19T17:01:33;4.17;;;2.83;;
9473;SDS011;8865;47.636;7.692;2023-05-19T17:03:59;3.43;;;2.43;;
9473;SDS011;8865;47.636;7.692;2023-05-19T17:06:25;3.10;;;2.67;;
9473;SDS011;8865;47.636;7.692;2023-05-19T17:08:51;3.63;;;2.47;;
9473;SDS011;8865;47.636;7.692;2023-05-19T17:11:17;3.10;;;2.80;;
9473;SDS011;8865;47.636;7.692;2023-05-19T17:13:44;3.53;;;2.63;;
9473;SDS011;8865;47.636;7.692;2023-05-19T17:16:10;5.80;;;2.80;;
9473;SDS011;8865;47.636;7.692;2023-05-19T17:18:36;4.63;;;2.67;;
9473;SDS011;8865;47.636;7.692;2023-05-19T17:21:02;5.13;;;2.80;;
9473;SDS011;8865;47.636;7.692;2023-05-19T17:23:30;4.87;;;2.73;;
9473;SDS011;8865;47.636;7.692;2023-05-19T17:25:56;3.90;;;2.60;;
9473;SDS011;8865;47.636;7.692;2023-05-19T17:28:22;5.10;;;2.83;;
9473;SDS011;8865;47.636;7.692;2023-05-19T17:30:49;4.27;;;2.70;;
9473;SDS011;8865;47.636;7.692;2023-05-19T17:33:15;2.93;;;2.50;;
9473;SDS011;8865;47.636;7.692;2023-05-19T17:35:41;3.63;;;3.10;;
9473;SDS011;8865;47.636;7.692;2023-05-19T17:38:07;4.40;;;2.83;;
9473;SDS011;8865;47.636;7.692;2023-05-19T17:40:33;4.03;;;3.10;;
9473;SDS011;8865;47.636;7.692;2023-05-19T17:43:01;4.90;;;3.20;;
9473;SDS011;8865;47.636;7.692;2023-05-19T17:45:27;5.03;;;4.40;;
9473;SDS011;8865;47.636;7.692;2023-05-19T17:47:53;3.97;;;3.33;;
9473;SDS011;8865;47.636;7.692;2023-05-19T17:50:19;4.80;;;2.63;;
9473;SDS011;8865;47.636;7.692;2023-05-19T17:52:45;3.53;;;2.60;;
9473;SDS011;8865;47.636;7.692;2023-05-19T17:55:11;4.43;;;2.87;;
9473;SDS011;8865;47.636;7.692;2023-05-19T17:57:38;3.30;;;2.70;;
9473;SDS011;8865;47.636;7.692;2023-05-19T18:00:08;4.03;;;2.80;;
9473;SDS011;8865;47.636;7.692;2023-05-19T18:02:35;5.00;;;3.33;;
9473;SDS011;8865;47.636;7.692;2023-05-19T18:05:01;4.30;;;3.07;;
9473;SDS011;8865;47.636;7.692;2023-05-19T18:07:28;4.00;;;3.10;;
9473;SDS011;8865;47.636;7.692;2023-05-19T18:09:57;4.17;;;3.17;;
9473;SDS011;8865;47.636;7.692;2023-05-19T18:12:25;3.43;;;2.57;;
9473;SDS011;8865;47.636;7.692;2023-05-19T18:14:51;4.20;;;3.13;;
9473;SDS011;8865;47.636;7.692;2023-05-19T18:17:17;3.93;;;3.03;;
9473;SDS011;8865;47.636;7.692;2023-05-19T18:19:43;5.33;;;2.90;;
9473;SDS011;8865;47.636;7.692;2023-05-19T18:22:09;3.10;;;2.60;;
9473;SDS011;8865;47.636;7.692;2023-05-19T18:24:37;4.77;;;3.03;;
9473;SDS011;8865;47.636;7.692;2023-05-19T18:27:03;4.27;;;2.90;;
9473;SDS011;8865;47.636;7.692;2023-05-19T18:29:29;3.50;;;3.10;;
9473;SDS011;8865;47.636;7.692;2023-05-19T18:31:55;5.60;;;3.80;;
9473;SDS011;8865;47.636;7.692;2023-05-19T18:34:21;7.17;;;3.47;;
9473;SDS011;8865;47.636;7.692;2023-05-19T18:36:47;4.73;;;3.60;;
9473;SDS011;8865;47.636;7.692;2023-05-19T18:39:13;4.50;;;3.60;;
9473;SDS011;8865;47.636;7.692;2023-05-19T18:41:39;4.63;;;3.50;;
9473;SDS011;8865;47.636;7.692;2023-05-19T18:44:07;5.53;;;3.40;;
9473;SDS011;8865;47.636;7.692;2023-05-19T18:46:33;6.23;;;3.30;;
9473;SDS011;8865;47.636;7.692;2023-05-19T18:48:59;4.53;;;3.30;;
